sensor_id;sensor_type;location;lat;lon;timestamp;pressure;altitude;pressure_sealevel;temperature;humidity
12203;BME280;6164;42.178;24.622;2023-04-02T00:01:44;98715.88;;;8.41;100.00
12203;BME280;6164;42.178;24.622;2023-04-02T00:04:13;98711.16;;;8.37;100.00
12203;BME280;6164;42.178;24.622;2023-04-02T00:06:47;98709.75;;;8.26;100.00
12203;BME280;6164;42.178;24.622;2023-04-02T00:09:23;98704.91;;;8.07;100.00
12203;BME280;6164;42.178;24.622;2023-04-02T00:11:53;98706.91;;;8.05;100.00
12203;BME280;6164;42.178;24.622;2023-04-02T00:14:25;98711.91;;;7.92;100.00
12203;BME280;6164;42.178;24.622;2023-04-02T00:16:57;98713.94;;;7.82;100.00
12203;BME280;6164;42.178;24.622;2023-04-02T00:19:30;98714.91;;;7.81;100.00
12203;BME280;6164;42.178;24.622;2023-04-02T00:22:01;98725.41;;;7.89;100.00
12203;BME280;6164;42.178;24.622;2023-04-02T00:24:31;98738.66;;;7.95;100.00
12203;BME280;6164;42.178;24.622;2023-04-02T00:27:00;98729.91;;;8.03;100.00
12203;BME280;6164;42.178;24.622;2023-04-02T00:29:26;98727.81;;;7.98;100.00
12203;BME280;6164;42.178;24.622;2023-04-02T00:31:53;98728.69;;;8.14;100.00
12203;BME280;6164;42.178;24.622;2023-04-02T00:34:30;98660.72;;;7.80;100.00
12203;BME280;6164;42.178;24.622;2023-04-02T00:36:58;98713.91;;;8.13;100.00
12203;BME280;6164;42.178;24.622;2023-04-02T00:39:28;98680.50;;;7.98;100.00
12203;BME280;6164;42.178;24.622;2023-04-02T00:41:57;98713.38;;;8.17;100.00
12203;BME280;6164;42.178;24.622;2023-04-02T00:44:31;98714.19;;;8.18;100.00
12203;BME280;6164;42.178;24.622;2023-04-02T00:47:06;98718.00;;;8.15;100.00
12203;BME280;6164;42.178;24.622;2023-04-02T00:49:38;98713.38;;;8.17;100.00
12203;BME280;6164;42.178;24.622;2023-04-02T00:52:06;98690.88;;;7.92;100.00
12203;BME280;6164;42.178;24.622;2023-04-02T00:54:38;98711.84;;;8.00;100.00
12203;BME280;6164;42.178;24.622;2023-04-02T00:57:14;98704.63;;;8.02;100.00
12203;BME280;6164;42.178;24.622;2023-04-02T00:59:52;98688.31;;;7.84;100.00
12203;BME280;6164;42.178;24.622;2023-04-02T01:02:27;98637.22;;;7.56;100.00
12203;BME280;6164;42.178;24.622;2023-04-02T01:04:56;98707.56;;;7.99;100.00
12203;BME280;6164;42.178;24.622;2023-04-02T01:07:44;98707.88;;;8.04;100.00
12203;BME280;6164;42.178;24.622;2023-04-02T01:10:30;98724.94;;;8.08;100.00
12203;BME280;6164;42.178;24.622;2023-04-02T01:13:07;98727.31;;;7.95;100.00
12203;BME280;6164;42.178;24.622;2023-04-02T01:15:41;98737.78;;;8.03;100.00
12203;BME280;6164;42.178;24.622;2023-04-02T01:21:17;98741.19;;;8.12;100.00
12203;BME280;6164;42.178;24.622;2023-04-02T01:23:55;98728.91;;;8.04;100.00
12203;BME280;6164;42.178;24.622;2023-04-02T01:26:39;98741.97;;;8.20;100.00
12203;BME280;6164;42.178;24.622;2023-04-02T01:29:12;98727.16;;;8.19;100.00
12203;BME280;6164;42.178;24.622;2023-04-02T01:31:40;98724.53;;;8.19;100.00
12203;BME280;6164;42.178;24.622;2023-04-02T01:34:11;98724.19;;;8.22;100.00
12203;BME280;6164;42.178;24.622;2023-04-02T01:36:44;98717.84;;;8.17;100.00
12203;BME280;6164;42.178;24.622;2023-04-02T01:39:23;98727.13;;;8.35;100.00
12203;BME280;6164;42.178;24.622;2023-04-02T01:41:58;98726.00;;;8.30;100.00
12203;BME280;6164;42.178;24.622;2023-04-02T01:44:31;98727.34;;;8.48;100.00
12203;BME280;6164;42.178;24.622;2023-04-02T01:47:02;98728.38;;;8.62;100.00
12203;BME280;6164;42.178;24.622;2023-04-02T01:49:30;98725.06;;;8.68;100.00
12203;BME280;6164;42.178;24.622;2023-04-02T01:51:58;98731.56;;;8.72;100.00
12203;BME280;6164;42.178;24.622;2023-04-02T01:54:25;98730.41;;;8.74;100.00
12203;BME280;6164;42.178;24.622;2023-04-02T01:56:53;98736.75;;;8.80;100.00
12203;BME280;6164;42.178;24.622;2023-04-02T01:59:22;98742.84;;;8.80;100.00
12203;BME280;6164;42.178;24.622;2023-04-02T02:01:55;98738.06;;;8.84;100.00
12203;BME280;6164;42.178;24.622;2023-04-02T02:04:24;98730.28;;;8.90;100.00
12203;BME280;6164;42.178;24.622;2023-04-02T02:06:51;98734.72;;;8.90;100.00
12203;BME280;6164;42.178;24.622;2023-04-02T02:09:20;98725.09;;;8.82;100.00
12203;BME280;6164;42.178;24.622;2023-04-02T02:11:49;98730.09;;;8.92;100.00
12203;BME280;6164;42.178;24.622;2023-04-02T02:14:18;98728.03;;;9.02;100.00
12203;BME280;6164;42.178;24.622;2023-04-02T02:16:46;98736.03;;;9.08;100.00
12203;BME280;6164;42.178;24.622;2023-04-02T02:19:22;98729.13;;;9.07;100.00
12203;BME280;6164;42.178;24.622;2023-04-02T02:21:51;98733.75;;;9.05;100.00
12203;BME280;6164;42.178;24.622;2023-04-02T02:24:22;98719.56;;;9.06;100.00
12203;BME280;6164;42.178;24.622;2023-04-02T02:26:57;98723.03;;;9.07;100.00
12203;BME280;6164;42.178;24.622;2023-04-02T02:29:27;98726.72;;;8.98;100.00
12203;BME280;6164;42.178;24.622;2023-04-02T02:31:57;98729.44;;;8.90;100.00
12203;BME280;6164;42.178;24.622;2023-04-02T02:34:30;98723.28;;;8.83;100.00
12203;BME280;6164;42.178;24.622;2023-04-02T02:37:03;98727.28;;;8.93;100.00
12203;BME280;6164;42.178;24.622;2023-04-02T02:39:36;98732.34;;;8.80;100.00
12203;BME280;6164;42.178;24.622;2023-04-02T02:42:11;98728.88;;;8.80;100.00
12203;BME280;6164;42.178;24.622;2023-04-02T02:44:43;98734.22;;;8.72;100.00
12203;BME280;6164;42.178;24.622;2023-04-02T02:47:14;98691.44;;;8.33;100.00
12203;BME280;6164;42.178;24.622;2023-04-02T02:49:44;98714.81;;;8.50;100.00
12203;BME280;6164;42.178;24.622;2023-04-02T02:52:14;98727.75;;;8.60;100.00
12203;BME280;6164;42.178;24.622;2023-04-02T02:54:43;98727.09;;;8.58;100.00
12203;BME280;6164;42.178;24.622;2023-04-02T02:57:15;98720.66;;;8.60;100.00
12203;BME280;6164;42.178;24.622;2023-04-02T02:59:44;98728.69;;;8.44;100.00
12203;BME280;6164;42.178;24.622;2023-04-02T03:02:13;98718.44;;;8.49;100.00
12203;BME280;6164;42.178;24.622;2023-04-02T03:04:46;98718.97;;;8.45;100.00
12203;BME280;6164;42.178;24.622;2023-04-02T03:07:15;98711.09;;;8.45;100.00
12203;BME280;6164;42.178;24.622;2023-04-02T03:09:50;98681.50;;;8.20;100.00
12203;BME280;6164;42.178;24.622;2023-04-02T03:12:29;98711.97;;;8.37;100.00
12203;BME280;6164;42.178;24.622;2023-04-02T03:15:02;98713.00;;;8.51;100.00
12203;BME280;6164;42.178;24.622;2023-04-02T03:17:35;98706.41;;;8.55;100.00
12203;BME280;6164;42.178;24.622;2023-04-02T03:20:06;98711.38;;;8.50;100.00
12203;BME280;6164;42.178;24.622;2023-04-02T03:22:39;98714.94;;;8.57;100.00
12203;BME280;6164;42.178;24.622;2023-04-02T03:25:20;98729.56;;;8.59;100.00
12203;BME280;6164;42.178;24.622;2023-04-02T03:27:50;98730.28;;;8.53;100.00
12203;BME280;6164;42.178;24.622;2023-04-02T03:30:32;98739.03;;;8.46;100.00
12203;BME280;6164;42.178;24.622;2023-04-02T03:33:03;98748.38;;;8.48;100.00
12203;BME280;6164;42.178;24.622;2023-04-02T03:35:35;98760.41;;;8.43;100.00
12203;BME280;6164;42.178;24.622;2023-04-02T03:38:06;98755.75;;;8.30;100.00
12203;BME280;6164;42.178;24.622;2023-04-02T03:40:40;98758.25;;;8.16;100.00
12203;BME280;6164;42.178;24.622;2023-04-02T03:43:14;98758.69;;;7.96;100.00
12203;BME280;6164;42.178;24.622;2023-04-02T03:45:48;98765.44;;;7.91;100.00
12203;BME280;6164;42.178;24.622;2023-04-02T03:48:19;98763.63;;;7.91;100.00
12203;BME280;6164;42.178;24.622;2023-04-02T03:50:55;98763.81;;;7.90;100.00
12203;BME280;6164;42.178;24.622;2023-04-02T03:53:24;98750.56;;;8.06;100.00
12203;BME280;6164;42.178;24.622;2023-04-02T03:55:52;98740.31;;;8.19;100.00
12203;BME280;6164;42.178;24.622;2023-04-02T03:58:22;98749.19;;;8.18;100.00
12203;BME280;6164;42.178;24.622;2023-04-02T04:00:53;98742.81;;;8.13;100.00
12203;BME280;6164;42.178;24.622;2023-04-02T04:03:25;98744.28;;;8.15;100.00
12203;BME280;6164;42.178;24.622;2023-04-02T04:05:58;98742.47;;;8.24;100.00
12203;BME280;6164;42.178;24.622;2023-04-02T04:08:30;98744.09;;;8.25;100.00
12203;BME280;6164;42.178;24.622;2023-04-02T04:11:02;98752.69;;;8.41;100.00
12203;BME280;6164;42.178;24.622;2023-04-02T04:13:38;98755.44;;;8.48;100.00
12203;BME280;6164;42.178;24.622;2023-04-02T04:16:08;98760.00;;;8.54;100.00
12203;BME280;6164;42.178;24.622;2023-04-02T04:18:41;98765.38;;;8.60;100.00
12203;BME280;6164;42.178;24.622;2023-04-02T04:21:15;98780.59;;;8.73;100.00
12203;BME280;6164;42.178;24.622;2023-04-02T04:23:49;98769.63;;;8.84;100.00
12203;BME280;6164;42.178;24.622;2023-04-02T04:26:19;98771.56;;;8.90;100.00
12203;BME280;6164;42.178;24.622;2023-04-02T04:28:54;98772.91;;;8.86;100.00
12203;BME280;6164;42.178;24.622;2023-04-02T04:31:26;98755.16;;;8.65;100.00
12203;BME280;6164;42.178;24.622;2023-04-02T04:33:57;98782.41;;;8.72;100.00
12203;BME280;6164;42.178;24.622;2023-04-02T04:36:32;98771.69;;;8.74;100.00
12203;BME280;6164;42.178;24.622;2023-04-02T04:39:10;98774.53;;;8.87;100.00
12203;BME280;6164;42.178;24.622;2023-04-02T04:41:41;98777.19;;;8.64;100.00
12203;BME280;6164;42.178;24.622;2023-04-02T04:44:14;98763.25;;;8.78;100.00
12203;BME280;6164;42.178;24.622;2023-04-02T04:46:46;98770.94;;;8.88;100.00
12203;BME280;6164;42.178;24.622;2023-04-02T04:49:19;98775.13;;;8.97;100.00
12203;BME280;6164;42.178;24.622;2023-04-02T04:51:52;98777.38;;;9.00;100.00
12203;BME280;6164;42.178;24.622;2023-04-02T04:54:24;98781.59;;;9.09;100.00
12203;BME280;6164;42.178;24.622;2023-04-02T04:56:54;98740.28;;;8.72;100.00
12203;BME280;6164;42.178;24.622;2023-04-02T04:59:25;98785.31;;;9.14;100.00
12203;BME280;6164;42.178;24.622;2023-04-02T05:01:56;98781.53;;;9.17;100.00
12203;BME280;6164;42.178;24.622;2023-04-02T05:04:30;98770.09;;;9.24;100.00
12203;BME280;6164;42.178;24.622;2023-04-02T05:07:04;98771.94;;;9.39;100.00
12203;BME280;6164;42.178;24.622;2023-04-02T05:09:36;98777.13;;;9.47;100.00
12203;BME280;6164;42.178;24.622;2023-04-02T05:12:09;98774.09;;;9.50;100.00
12203;BME280;6164;42.178;24.622;2023-04-02T05:14:45;98774.19;;;9.56;100.00
12203;BME280;6164;42.178;24.622;2023-04-02T05:17:18;98775.91;;;9.49;100.00
12203;BME280;6164;42.178;24.622;2023-04-02T05:19:50;98786.38;;;9.57;100.00
12203;BME280;6164;42.178;24.622;2023-04-02T05:22:28;98793.56;;;9.63;100.00
12203;BME280;6164;42.178;24.622;2023-04-02T05:25:07;98793.94;;;9.75;100.00
12203;BME280;6164;42.178;24.622;2023-04-02T05:27:38;98793.19;;;9.66;100.00
12203;BME280;6164;42.178;24.622;2023-04-02T05:30:14;98808.09;;;9.74;100.00
12203;BME280;6164;42.178;24.622;2023-04-02T05:32:49;98810.09;;;9.86;100.00
12203;BME280;6164;42.178;24.622;2023-04-02T05:35:27;98809.53;;;9.91;100.00
12203;BME280;6164;42.178;24.622;2023-04-02T05:37:57;98815.09;;;9.96;100.00
12203;BME280;6164;42.178;24.622;2023-04-02T05:40:30;98810.47;;;9.98;100.00
12203;BME280;6164;42.178;24.622;2023-04-02T05:43:01;98811.38;;;10.05;100.00
12203;BME280;6164;42.178;24.622;2023-04-02T05:45:34;98805.47;;;10.17;100.00
12203;BME280;6164;42.178;24.622;2023-04-02T05:48:09;98807.88;;;10.33;100.00
12203;BME280;6164;42.178;24.622;2023-04-02T05:50:42;98767.47;;;10.33;100.00
12203;BME280;6164;42.178;24.622;2023-04-02T05:53:16;98803.72;;;10.60;100.00
12203;BME280;6164;42.178;24.622;2023-04-02T05:55:51;98805.41;;;10.68;100.00
12203;BME280;6164;42.178;24.622;2023-04-02T05:58:26;98810.41;;;10.77;100.00
12203;BME280;6164;42.178;24.622;2023-04-02T06:01:17;98816.47;;;10.78;100.00
12203;BME280;6164;42.178;24.622;2023-04-02T06:03:50;98802.91;;;10.81;100.00
12203;BME280;6164;42.178;24.622;2023-04-02T06:06:26;98817.28;;;10.99;100.00
12203;BME280;6164;42.178;24.622;2023-04-02T06:08:59;98810.75;;;11.16;100.00
12203;BME280;6164;42.178;24.622;2023-04-02T06:11:31;98812.81;;;11.48;100.00
12203;BME280;6164;42.178;24.622;2023-04-02T06:14:08;98817.47;;;11.67;99.67
12203;BME280;6164;42.178;24.622;2023-04-02T06:16:35;98808.09;;;11.71;97.98
12203;BME280;6164;42.178;24.622;2023-04-02T06:19:09;98814.38;;;11.98;96.30
12203;BME280;6164;42.178;24.622;2023-04-02T06:21:43;98804.41;;;12.00;92.77
12203;BME280;6164;42.178;24.622;2023-04-02T06:24:13;98829.31;;;12.12;91.55
12203;BME280;6164;42.178;24.622;2023-04-02T06:26:44;98827.94;;;12.29;90.59
12203;BME280;6164;42.178;24.622;2023-04-02T06:29:19;98824.25;;;12.17;87.78
12203;BME280;6164;42.178;24.622;2023-04-02T06:31:51;98810.97;;;12.04;88.07
12203;BME280;6164;42.178;24.622;2023-04-02T06:34:21;98838.91;;;12.20;89.52
12203;BME280;6164;42.178;24.622;2023-04-02T06:36:50;98845.03;;;12.27;89.88
12203;BME280;6164;42.178;24.622;2023-04-02T06:39:22;98845.28;;;12.32;88.08
12203;BME280;6164;42.178;24.622;2023-04-02T06:41:55;98850.19;;;12.41;87.75
12203;BME280;6164;42.178;24.622;2023-04-02T06:44:24;98848.38;;;12.48;84.57
12203;BME280;6164;42.178;24.622;2023-04-02T06:46:56;98845.19;;;12.66;85.86
12203;BME280;6164;42.178;24.622;2023-04-02T06:49:31;98847.84;;;12.66;84.10
12203;BME280;6164;42.178;24.622;2023-04-02T06:52:04;98844.38;;;12.72;83.89
12203;BME280;6164;42.178;24.622;2023-04-02T06:54:35;98857.03;;;12.76;83.76
12203;BME280;6164;42.178;24.622;2023-04-02T06:57:03;98849.66;;;12.72;84.78
12203;BME280;6164;42.178;24.622;2023-04-02T06:59:35;98853.56;;;12.76;84.97
12203;BME280;6164;42.178;24.622;2023-04-02T07:02:04;98851.31;;;12.73;85.58
12203;BME280;6164;42.178;24.622;2023-04-02T07:04:41;98853.19;;;12.92;85.73
12203;BME280;6164;42.178;24.622;2023-04-02T07:07:08;98848.50;;;12.94;85.69
12203;BME280;6164;42.178;24.622;2023-04-02T07:09:39;98869.13;;;13.05;85.67
12203;BME280;6164;42.178;24.622;2023-04-02T07:12:10;98858.88;;;12.89;85.38
12203;BME280;6164;42.178;24.622;2023-04-02T07:14:36;98859.16;;;13.07;86.38
12203;BME280;6164;42.178;24.622;2023-04-02T07:17:03;98858.13;;;13.01;84.08
12203;BME280;6164;42.178;24.622;2023-04-02T07:19:30;98863.84;;;13.11;84.27
12203;BME280;6164;42.178;24.622;2023-04-02T07:21:57;98838.78;;;13.01;87.65
12203;BME280;6164;42.178;24.622;2023-04-02T07:24:23;98866.94;;;13.28;88.51
12203;BME280;6164;42.178;24.622;2023-04-02T07:26:51;98866.34;;;13.33;88.73
12203;BME280;6164;42.178;24.622;2023-04-02T07:29:18;98875.91;;;13.34;87.30
12203;BME280;6164;42.178;24.622;2023-04-02T07:31:45;98876.94;;;13.33;85.92
12203;BME280;6164;42.178;24.622;2023-04-02T07:34:12;98868.56;;;13.36;85.84
12203;BME280;6164;42.178;24.622;2023-04-02T07:36:38;98872.84;;;13.43;83.52
12203;BME280;6164;42.178;24.622;2023-04-02T07:39:06;98875.50;;;13.43;82.05
12203;BME280;6164;42.178;24.622;2023-04-02T07:41:32;98876.13;;;13.39;80.11
12203;BME280;6164;42.178;24.622;2023-04-02T07:44:00;98872.22;;;13.41;80.27
12203;BME280;6164;42.178;24.622;2023-04-02T07:46:29;98883.44;;;13.43;80.71
12203;BME280;6164;42.178;24.622;2023-04-02T07:48:55;98886.94;;;13.50;79.96
12203;BME280;6164;42.178;24.622;2023-04-02T07:51:24;98845.72;;;13.28;80.12
12203;BME280;6164;42.178;24.622;2023-04-02T07:53:51;98870.41;;;13.48;79.53
12203;BME280;6164;42.178;24.622;2023-04-02T07:56:20;98872.84;;;13.69;80.41
12203;BME280;6164;42.178;24.622;2023-04-02T07:58:48;98875.50;;;13.63;77.26
12203;BME280;6164;42.178;24.622;2023-04-02T08:01:19;98871.41;;;13.80;76.63
12203;BME280;6164;42.178;24.622;2023-04-02T08:03:48;98878.53;;;13.86;73.97
12203;BME280;6164;42.178;24.622;2023-04-02T08:06:15;98888.94;;;13.94;72.42
12203;BME280;6164;42.178;24.622;2023-04-02T08:08:42;98889.13;;;13.99;70.91
12203;BME280;6164;42.178;24.622;2023-04-02T08:11:09;98885.22;;;14.21;69.48
12203;BME280;6164;42.178;24.622;2023-04-02T08:13:36;98917.69;;;14.29;65.51
12203;BME280;6164;42.178;24.622;2023-04-02T08:16:04;98906.03;;;14.37;66.03
12203;BME280;6164;42.178;24.622;2023-04-02T08:18:33;98910.66;;;14.61;64.80
12203;BME280;6164;42.178;24.622;2023-04-02T08:21:00;98912.00;;;14.77;63.22
12203;BME280;6164;42.178;24.622;2023-04-02T08:23:26;98894.13;;;14.97;63.28
12203;BME280;6164;42.178;24.622;2023-04-02T08:25:54;98903.91;;;15.34;62.52
12203;BME280;6164;42.178;24.622;2023-04-02T08:28:21;98908.03;;;15.61;61.97
12203;BME280;6164;42.178;24.622;2023-04-02T08:30:48;98926.28;;;15.57;58.73
12203;BME280;6164;42.178;24.622;2023-04-02T08:33:15;98941.88;;;15.78;58.75
12203;BME280;6164;42.178;24.622;2023-04-02T08:35:44;98909.53;;;16.00;60.59
12203;BME280;6164;42.178;24.622;2023-04-02T08:38:12;98912.44;;;16.16;59.28
12203;BME280;6164;42.178;24.622;2023-04-02T08:40:42;98930.25;;;16.40;58.55
12203;BME280;6164;42.178;24.622;2023-04-02T08:46:07;98916.44;;;16.07;57.10
12203;BME280;6164;42.178;24.622;2023-04-02T08:48:37;98933.81;;;16.52;57.92
12203;BME280;6164;42.178;24.622;2023-04-02T08:51:06;98902.25;;;16.85;60.19
12203;BME280;6164;42.178;24.622;2023-04-02T08:53:35;98947.06;;;16.95;56.30
12203;BME280;6164;42.178;24.622;2023-04-02T08:56:08;98944.06;;;17.03;56.69
12203;BME280;6164;42.178;24.622;2023-04-02T08:58:43;98946.34;;;17.18;56.18
12203;BME280;6164;42.178;24.622;2023-04-02T09:01:20;98948.13;;;17.05;55.31
12203;BME280;6164;42.178;24.622;2023-04-02T09:03:53;98930.09;;;17.19;56.46
12203;BME280;6164;42.178;24.622;2023-04-02T09:06:23;98948.00;;;17.30;54.57
12203;BME280;6164;42.178;24.622;2023-04-02T09:08:52;98955.78;;;17.32;53.88
12203;BME280;6164;42.178;24.622;2023-04-02T09:11:22;98946.75;;;17.33;54.26
12203;BME280;6164;42.178;24.622;2023-04-02T09:13:54;98941.31;;;17.09;53.26
12203;BME280;6164;42.178;24.622;2023-04-02T09:16:33;98941.97;;;17.23;53.64
12203;BME280;6164;42.178;24.622;2023-04-02T09:19:13;98929.78;;;17.57;53.50
12203;BME280;6164;42.178;24.622;2023-04-02T09:21:43;98972.75;;;17.67;51.27
12203;BME280;6164;42.178;24.622;2023-04-02T09:24:12;98947.00;;;17.72;52.78
12203;BME280;6164;42.178;24.622;2023-04-02T09:26:39;98953.97;;;17.73;52.89
12203;BME280;6164;42.178;24.622;2023-04-02T09:29:30;98946.88;;;17.67;52.80
12203;BME280;6164;42.178;24.622;2023-04-02T09:32:11;98985.84;;;17.57;49.10
12203;BME280;6164;42.178;24.622;2023-04-02T09:34:43;99018.06;;;17.85;48.22
12203;BME280;6164;42.178;24.622;2023-04-02T09:37:16;99011.03;;;18.02;48.40
12203;BME280;6164;42.178;24.622;2023-04-02T09:39:44;99010.97;;;18.43;48.04
12203;BME280;6164;42.178;24.622;2023-04-02T09:42:29;99055.09;;;18.34;45.94
12203;BME280;6164;42.178;24.622;2023-04-02T09:45:11;99042.06;;;18.37;46.83
12203;BME280;6164;42.178;24.622;2023-04-02T09:47:39;99069.66;;;18.50;44.77
12203;BME280;6164;42.178;24.622;2023-04-02T09:50:14;99135.91;;;18.59;42.72
12203;BME280;6164;42.178;24.622;2023-04-02T09:52:49;99137.63;;;18.54;42.85
12203;BME280;6164;42.178;24.622;2023-04-02T09:55:19;99168.38;;;18.74;41.48
12203;BME280;6164;42.178;24.622;2023-04-02T09:57:48;99167.56;;;18.85;42.45
12203;BME280;6164;42.178;24.622;2023-04-02T10:00:18;99186.88;;;18.99;40.66
12203;BME280;6164;42.178;24.622;2023-04-02T10:03:00;99176.84;;;18.71;42.04
12203;BME280;6164;42.178;24.622;2023-04-02T10:05:27;99167.44;;;19.03;42.13
12203;BME280;6164;42.178;24.622;2023-04-02T10:08:05;99156.75;;;19.03;42.33
12203;BME280;6164;42.178;24.622;2023-04-02T10:10:36;99175.03;;;19.41;42.37
12203;BME280;6164;42.178;24.622;2023-04-02T10:13:07;99197.94;;;19.25;40.92
12203;BME280;6164;42.178;24.622;2023-04-02T10:15:43;99237.78;;;19.33;39.47
12203;BME280;6164;42.178;24.622;2023-04-02T10:18:18;99250.75;;;19.07;39.33
12203;BME280;6164;42.178;24.622;2023-04-02T10:20:50;99244.03;;;19.16;39.57
12203;BME280;6164;42.178;24.622;2023-04-02T10:23:23;99225.50;;;19.26;40.55
12203;BME280;6164;42.178;24.622;2023-04-02T10:25:57;99217.47;;;19.26;40.24
12203;BME280;6164;42.178;24.622;2023-04-02T10:28:43;99217.03;;;19.06;40.71
12203;BME280;6164;42.178;24.622;2023-04-02T10:31:14;99223.06;;;19.13;39.70
12203;BME280;6164;42.178;24.622;2023-04-02T10:33:48;99253.63;;;18.94;39.81
12203;BME280;6164;42.178;24.622;2023-04-02T10:36:23;99256.31;;;18.94;39.29
12203;BME280;6164;42.178;24.622;2023-04-02T10:38:58;99255.63;;;18.98;39.46
12203;BME280;6164;42.178;24.622;2023-04-02T10:41:30;99266.91;;;19.00;39.88
12203;BME280;6164;42.178;24.622;2023-04-02T10:44:26;99276.19;;;18.98;39.52
12203;BME280;6164;42.178;24.622;2023-04-02T10:47:06;99234.91;;;18.94;40.82
12203;BME280;6164;42.178;24.622;2023-04-02T10:49:40;99253.53;;;19.12;39.71
12203;BME280;6164;42.178;24.622;2023-04-02T10:52:11;99246.13;;;19.25;39.60
12203;BME280;6164;42.178;24.622;2023-04-02T10:54:48;99265.34;;;19.45;37.85
12203;BME280;6164;42.178;24.622;2023-04-02T10:57:28;99298.97;;;19.41;36.98
12203;BME280;6164;42.178;24.622;2023-04-02T11:00:04;99287.09;;;19.60;37.72
12203;BME280;6164;42.178;24.622;2023-04-02T11:02:38;99293.84;;;19.98;37.53
12203;BME280;6164;42.178;24.622;2023-04-02T11:05:15;99302.19;;;20.13;37.51
12203;BME280;6164;42.178;24.622;2023-04-02T11:08:02;99311.03;;;20.25;36.99
12203;BME280;6164;42.178;24.622;2023-04-02T11:10:34;99312.41;;;20.39;37.20
12203;BME280;6164;42.178;24.622;2023-04-02T11:13:08;99286.34;;;20.23;37.45
12203;BME280;6164;42.178;24.622;2023-04-02T11:15:38;99330.84;;;20.63;36.61
12203;BME280;6164;42.178;24.622;2023-04-02T11:18:05;99345.06;;;20.75;35.57
12203;BME280;6164;42.178;24.622;2023-04-02T11:21:04;99364.56;;;20.59;36.15
12203;BME280;6164;42.178;24.622;2023-04-02T11:23:33;99359.09;;;20.54;37.17
12203;BME280;6164;42.178;24.622;2023-04-02T11:26:28;99371.06;;;20.75;35.43
12203;BME280;6164;42.178;24.622;2023-04-02T11:29:03;99376.28;;;20.81;36.49
12203;BME280;6164;42.178;24.622;2023-04-02T11:31:32;99362.69;;;21.00;35.87
12203;BME280;6164;42.178;24.622;2023-04-02T11:33:59;99384.59;;;20.68;35.16
12203;BME280;6164;42.178;24.622;2023-04-02T11:36:57;99354.59;;;21.11;36.54
12203;BME280;6164;42.178;24.622;2023-04-02T11:39:45;99356.41;;;21.39;36.26
12203;BME280;6164;42.178;24.622;2023-04-02T11:42:31;99380.22;;;21.35;35.01
12203;BME280;6164;42.178;24.622;2023-04-02T11:47:42;99321.41;;;20.89;35.26
12203;BME280;6164;42.178;24.622;2023-04-02T11:50:33;99406.22;;;21.46;34.36
12203;BME280;6164;42.178;24.622;2023-04-02T11:53:02;99393.13;;;21.50;34.65
12203;BME280;6164;42.178;24.622;2023-04-02T11:55:30;99359.50;;;21.64;35.37
12203;BME280;6164;42.178;24.622;2023-04-02T11:58:43;99391.56;;;21.54;35.89
12203;BME280;6164;42.178;24.622;2023-04-02T12:07:19;99386.38;;;21.97;35.11
12203;BME280;6164;42.178;24.622;2023-04-02T12:09:52;99422.59;;;21.61;34.68
12203;BME280;6164;42.178;24.622;2023-04-02T12:12:25;99396.56;;;21.78;35.06
12203;BME280;6164;42.178;24.622;2023-04-02T12:14:54;99408.72;;;21.81;34.79
12203;BME280;6164;42.178;24.622;2023-04-02T12:17:27;99427.31;;;21.71;33.90
12203;BME280;6164;42.178;24.622;2023-04-02T12:19:57;99443.19;;;21.56;33.69
12203;BME280;6164;42.178;24.622;2023-04-02T12:22:27;99430.72;;;21.66;34.05
12203;BME280;6164;42.178;24.622;2023-04-02T12:24:59;99435.13;;;21.72;34.34
12203;BME280;6164;42.178;24.622;2023-04-02T12:27:27;99444.56;;;21.75;34.49
12203;BME280;6164;42.178;24.622;2023-04-02T12:30:10;99433.94;;;21.80;35.05
12203;BME280;6164;42.178;24.622;2023-04-02T12:32:38;99420.00;;;21.99;34.37
12203;BME280;6164;42.178;24.622;2023-04-02T12:35:05;99440.63;;;22.10;33.58
12203;BME280;6164;42.178;24.622;2023-04-02T12:37:32;99441.31;;;22.23;34.15
12203;BME280;6164;42.178;24.622;2023-04-02T12:40:01;99446.31;;;22.52;33.38
12203;BME280;6164;42.178;24.622;2023-04-02T12:42:32;99449.03;;;22.74;33.28
12203;BME280;6164;42.178;24.622;2023-04-02T12:45:02;99412.75;;;22.76;33.54
12203;BME280;6164;42.178;24.622;2023-04-02T12:47:29;99457.06;;;22.69;33.46
12203;BME280;6164;42.178;24.622;2023-04-02T12:49:57;99433.91;;;22.89;34.21
12203;BME280;6164;42.178;24.622;2023-04-02T12:52:26;99459.13;;;22.62;33.63
12203;BME280;6164;42.178;24.622;2023-04-02T12:54:55;99459.19;;;22.12;34.23
12203;BME280;6164;42.178;24.622;2023-04-02T12:57:41;99441.06;;;22.24;34.40
12203;BME280;6164;42.178;24.622;2023-04-02T13:00:30;99449.47;;;22.66;33.34
12203;BME280;6164;42.178;24.622;2023-04-02T13:03:14;99438.91;;;22.81;34.54
12203;BME280;6164;42.178;24.622;2023-04-02T13:05:44;99439.47;;;22.83;34.16
12203;BME280;6164;42.178;24.622;2023-04-02T13:08:16;99434.94;;;22.45;34.24
12203;BME280;6164;42.178;24.622;2023-04-02T13:10:43;99418.38;;;22.53;33.60
12203;BME280;6164;42.178;24.622;2023-04-02T13:13:15;99460.06;;;22.72;33.14
12203;BME280;6164;42.178;24.622;2023-04-02T13:15:43;99440.00;;;22.80;34.38
12203;BME280;6164;42.178;24.622;2023-04-02T13:18:19;99450.50;;;22.60;34.45
12203;BME280;6164;42.178;24.622;2023-04-02T13:20:56;99437.56;;;22.40;34.59
12203;BME280;6164;42.178;24.622;2023-04-02T13:23:31;99428.41;;;22.58;35.03
12203;BME280;6164;42.178;24.622;2023-04-02T13:26:00;99438.53;;;22.72;34.05
12203;BME280;6164;42.178;24.622;2023-04-02T13:28:28;99460.69;;;22.79;33.69
12203;BME280;6164;42.178;24.622;2023-04-02T13:30:56;99458.56;;;23.03;33.45
12203;BME280;6164;42.178;24.622;2023-04-02T13:33:22;99463.78;;;22.50;33.41
12203;BME280;6164;42.178;24.622;2023-04-02T13:35:49;99451.78;;;22.57;34.64
12203;BME280;6164;42.178;24.622;2023-04-02T13:38:16;99451.56;;;22.80;33.33
12203;BME280;6164;42.178;24.622;2023-04-02T13:40:43;99451.47;;;22.97;33.56
12203;BME280;6164;42.178;24.622;2023-04-02T13:43:14;99475.34;;;22.88;33.25